KSGR

Sugar Land Regional Airport

Houston, Texas, USA
KSGR 151121Z 1512/1612 16007KT P6SM SCT025 FM151500 18007KT P6SM SCT025 BKN035 FM151900 17008KT P6SM VCSH BKN040 FM160000 16007KT P6SM SCT250
Issued Valid From Valid To
Aug-15 @ 11:21 UTC
(an hour ago)
Aug-15 @ 12:00 UTC
(42 minutes ago)
Aug-16 @ 12:00 UTC
(in 23 hours)
Aug-15 @ 12:00 to Aug-15 @ 15:00
KSGR 151121Z 1512/1612 16007KT P6SM SCT025
Wind Visibility Clouds
160° at 7 knots Greater than 6 miles
  • Scattered at 2,500' AGL
From Aug-15 @ 15:00 to Aug-15 @ 19:00
FM151500 18007KT P6SM SCT025 BKN035
Wind Visibility Clouds
180° at 7 knots Greater than 6 miles
  • Scattered at 2,500' AGL
  • Broken at 3,500' AGL
From Aug-15 @ 19:00 to Aug-16 @ 00:00
FM151900 17008KT P6SM VCSH BKN040
Wind Visibility Clouds
170° at 8 knots Greater than 6 miles
  • Broken at 4,000' AGL
From Aug-16 @ 00:00 to Aug-16 @ 12:00
FM160000 16007KT P6SM SCT250
Wind Visibility Clouds
160° at 7 knots Greater than 6 miles
  • Scattered at 25,000' AGL
KSGR 151121Z 1512/1612 16007KT P6SM SCT025 FM151500 18007KT P6SM SCT025 BKN035 FM151900 17008KT P6SM VCSH BKN040 FM160000 16007KT P6SM SCT250
Issued Aug-15 @ 11:21 UTC
(an hour ago)
Valid From Aug-15 @ 12:00 UTC
(42 minutes ago)
Valid To Aug-16 @ 12:00 UTC
(in 23 hours)
Aug-15 @ 12:00 - Aug-15 @ 15:00
Wind Visibility
160° at 7 knots Greater than 6 miles
Clouds
  • Scattered at 2,500' AGL
From Aug-15 @ 15:00 - Aug-15 @ 19:00
Wind Visibility
180° at 7 knots Greater than 6 miles
Clouds
  • Scattered at 2,500' AGL
  • Broken at 3,500' AGL
From Aug-15 @ 19:00 - Aug-16 @ 00:00
Wind Visibility
170° at 8 knots Greater than 6 miles
Clouds
  • Broken at 4,000' AGL
From Aug-16 @ 00:00 - Aug-16 @ 12:00
Wind Visibility
160° at 7 knots Greater than 6 miles
Clouds
  • Scattered at 25,000' AGL